sensor_id;sensor_type;location;lat;lon;timestamp;pressure;altitude;pressure_sealevel;temperature;humidity
46944;BME280;32678;43.852;25.952;2023-07-29T00:00:10;100821.88;;;24.03;38.70
46944;BME280;32678;43.852;25.952;2023-07-29T00:05:10;100819.84;;;24.26;38.65
46944;BME280;32678;43.852;25.952;2023-07-29T00:10:08;100830.88;;;24.02;39.28
46944;BME280;32678;43.852;25.952;2023-07-29T00:15:05;100828.19;;;23.71;39.99
46944;BME280;32678;43.852;25.952;2023-07-29T00:20:02;100820.22;;;23.60;40.42
46944;BME280;32678;43.852;25.952;2023-07-29T00:24:59;100824.47;;;23.84;40.14
46944;BME280;32678;43.852;25.952;2023-07-29T00:29:57;100821.50;;;23.87;40.00
46944;BME280;32678;43.852;25.952;2023-07-29T00:34:54;100819.69;;;23.87;40.44
46944;BME280;32678;43.852;25.952;2023-07-29T00:39:51;100816.75;;;24.00;40.43
46944;BME280;32678;43.852;25.952;2023-07-29T00:44:48;100802.22;;;23.93;40.74
46944;BME280;32678;43.852;25.952;2023-07-29T00:49:45;100819.03;;;24.04;40.93
46944;BME280;32678;43.852;25.952;2023-07-29T00:54:42;100816.88;;;23.89;41.13
46944;BME280;32678;43.852;25.952;2023-07-29T00:59:39;100821.09;;;23.91;41.31
46944;BME280;32678;43.852;25.952;2023-07-29T01:04:38;100822.69;;;23.94;41.24
46944;BME280;32678;43.852;25.952;2023-07-29T01:09:36;100816.50;;;23.72;41.23
46944;BME280;32678;43.852;25.952;2023-07-29T01:14:38;100821.59;;;23.34;42.22
46944;BME280;32678;43.852;25.952;2023-07-29T01:19:47;100820.16;;;23.30;41.78
46944;BME280;32678;43.852;25.952;2023-07-29T01:24:46;100820.09;;;23.62;41.50
46944;BME280;32678;43.852;25.952;2023-07-29T01:29:44;100828.22;;;23.81;41.20
46944;BME280;32678;43.852;25.952;2023-07-29T01:34:41;100821.69;;;23.64;41.72
46944;BME280;32678;43.852;25.952;2023-07-29T01:39:40;100818.09;;;23.54;41.80
46944;BME280;32678;43.852;25.952;2023-07-29T01:44:38;100823.75;;;23.61;41.41
46944;BME280;32678;43.852;25.952;2023-07-29T01:49:35;100822.91;;;23.19;42.65
46944;BME280;32678;43.852;25.952;2023-07-29T01:54:32;100819.41;;;22.86;42.93
46944;BME280;32678;43.852;25.952;2023-07-29T01:59:29;100818.19;;;22.68;43.58
46944;BME280;32678;43.852;25.952;2023-07-29T02:04:27;100822.69;;;22.68;43.77
46944;BME280;32678;43.852;25.952;2023-07-29T02:09:24;100815.19;;;22.73;43.76
46944;BME280;32678;43.852;25.952;2023-07-29T02:14:22;100815.50;;;22.36;44.12
46944;BME280;32678;43.852;25.952;2023-07-29T02:19:18;100807.41;;;22.04;45.10
46944;BME280;32678;43.852;25.952;2023-07-29T02:24:16;100803.88;;;22.26;44.74
46944;BME280;32678;43.852;25.952;2023-07-29T02:29:12;100793.19;;;22.04;44.51
46944;BME280;32678;43.852;25.952;2023-07-29T02:34:09;100815.16;;;22.19;45.05
46944;BME280;32678;43.852;25.952;2023-07-29T02:39:06;100822.88;;;22.44;43.97
46944;BME280;32678;43.852;25.952;2023-07-29T02:44:05;100833.63;;;22.33;44.48
46944;BME280;32678;43.852;25.952;2023-07-29T02:49:02;100829.81;;;22.35;43.94
46944;BME280;32678;43.852;25.952;2023-07-29T02:54:00;100844.56;;;22.08;44.67
46944;BME280;32678;43.852;25.952;2023-07-29T02:58:57;100847.72;;;22.13;44.76
46944;BME280;32678;43.852;25.952;2023-07-29T03:03:55;100858.84;;;22.40;44.62
46944;BME280;32678;43.852;25.952;2023-07-29T03:08:52;100875.38;;;22.23;44.40
46944;BME280;32678;43.852;25.952;2023-07-29T03:13:48;100876.81;;;22.16;45.17
46944;BME280;32678;43.852;25.952;2023-07-29T03:18:45;100885.06;;;22.57;44.27
46944;BME280;32678;43.852;25.952;2023-07-29T03:23:43;100887.38;;;22.62;44.32
46944;BME280;32678;43.852;25.952;2023-07-29T03:28:41;100876.56;;;22.52;44.64
46944;BME280;32678;43.852;25.952;2023-07-29T03:33:38;100888.84;;;22.21;46.36
46944;BME280;32678;43.852;25.952;2023-07-29T03:38:35;100889.69;;;22.44;46.58
46944;BME280;32678;43.852;25.952;2023-07-29T03:43:36;100894.06;;;22.12;47.05
46944;BME280;32678;43.852;25.952;2023-07-29T03:48:33;100883.03;;;21.94;46.95
46944;BME280;32678;43.852;25.952;2023-07-29T03:53:30;100879.75;;;22.13;46.95
46944;BME280;32678;43.852;25.952;2023-07-29T03:58:27;100885.22;;;22.22;46.64
46944;BME280;32678;43.852;25.952;2023-07-29T04:03:25;100885.06;;;22.35;46.06
46944;BME280;32678;43.852;25.952;2023-07-29T04:08:23;100889.09;;;22.07;46.87
46944;BME280;32678;43.852;25.952;2023-07-29T04:13:20;100873.84;;;21.85;46.92
46944;BME280;32678;43.852;25.952;2023-07-29T04:18:17;100878.81;;;21.68;47.36
46944;BME280;32678;43.852;25.952;2023-07-29T04:23:15;100860.19;;;22.01;46.56
46944;BME280;32678;43.852;25.952;2023-07-29T04:28:12;100879.72;;;22.35;45.75
46944;BME280;32678;43.852;25.952;2023-07-29T04:33:09;100879.25;;;22.52;45.79
46944;BME280;32678;43.852;25.952;2023-07-29T04:38:06;100877.19;;;22.99;44.37
46944;BME280;32678;43.852;25.952;2023-07-29T04:43:04;100886.94;;;22.88;44.40
46944;BME280;32678;43.852;25.952;2023-07-29T04:48:01;100888.34;;;22.72;45.75
46944;BME280;32678;43.852;25.952;2023-07-29T04:52:58;100886.56;;;22.93;45.73
46944;BME280;32678;43.852;25.952;2023-07-29T04:57:55;100891.00;;;23.15;44.96
46944;BME280;32678;43.852;25.952;2023-07-29T05:02:53;100897.25;;;23.04;45.90
46944;BME280;32678;43.852;25.952;2023-07-29T05:07:50;100907.03;;;23.26;44.85
46944;BME280;32678;43.852;25.952;2023-07-29T05:12:47;100903.03;;;23.41;44.69
46944;BME280;32678;43.852;25.952;2023-07-29T05:17:43;100908.25;;;23.43;44.60
46944;BME280;32678;43.852;25.952;2023-07-29T05:22:41;100909.94;;;23.75;43.87
46944;BME280;32678;43.852;25.952;2023-07-29T05:27:38;100918.28;;;23.82;44.31
46944;BME280;32678;43.852;25.952;2023-07-29T05:32:35;100923.53;;;23.63;45.39
46944;BME280;32678;43.852;25.952;2023-07-29T05:37:32;100926.88;;;23.55;46.35
46944;BME280;32678;43.852;25.952;2023-07-29T05:42:29;100933.50;;;23.61;46.12
46944;BME280;32678;43.852;25.952;2023-07-29T05:47:29;100935.53;;;23.68;47.71
46944;BME280;32678;43.852;25.952;2023-07-29T05:52:26;100935.41;;;23.91;48.20
46944;BME280;32678;43.852;25.952;2023-07-29T05:57:23;100934.28;;;23.72;49.42
46944;BME280;32678;43.852;25.952;2023-07-29T06:02:22;100936.13;;;23.93;47.04
46944;BME280;32678;43.852;25.952;2023-07-29T06:07:19;100923.38;;;24.06;48.25
46944;BME280;32678;43.852;25.952;2023-07-29T06:12:18;100937.41;;;24.19;47.78
46944;BME280;32678;43.852;25.952;2023-07-29T06:17:15;100932.31;;;24.37;47.07
46944;BME280;32678;43.852;25.952;2023-07-29T06:22:12;100935.97;;;24.15;47.62
46944;BME280;32678;43.852;25.952;2023-07-29T06:27:11;100934.72;;;24.49;48.26
46944;BME280;32678;43.852;25.952;2023-07-29T06:32:08;100934.38;;;24.24;49.77
46944;BME280;32678;43.852;25.952;2023-07-29T06:37:05;100933.41;;;24.34;50.57
46944;BME280;32678;43.852;25.952;2023-07-29T06:42:05;100935.88;;;24.47;50.06
46944;BME280;32678;43.852;25.952;2023-07-29T06:47:02;100939.19;;;24.70;49.57
46944;BME280;32678;43.852;25.952;2023-07-29T06:51:59;100943.47;;;24.82;49.78
46944;BME280;32678;43.852;25.952;2023-07-29T06:56:56;100940.91;;;24.80;49.03
46944;BME280;32678;43.852;25.952;2023-07-29T07:01:53;100932.00;;;24.80;48.96
46944;BME280;32678;43.852;25.952;2023-07-29T07:06:52;100929.84;;;25.23;46.65
46944;BME280;32678;43.852;25.952;2023-07-29T07:11:52;100938.31;;;25.28;45.61
46944;BME280;32678;43.852;25.952;2023-07-29T07:16:48;100938.06;;;25.31;46.74
46944;BME280;32678;43.852;25.952;2023-07-29T07:21:46;100932.97;;;25.57;45.78
46944;BME280;32678;43.852;25.952;2023-07-29T07:26:43;100919.97;;;25.72;45.53
46944;BME280;32678;43.852;25.952;2023-07-29T07:31:40;100929.72;;;25.73;45.00
46944;BME280;32678;43.852;25.952;2023-07-29T07:36:37;100926.56;;;25.97;43.16
46944;BME280;32678;43.852;25.952;2023-07-29T07:41:37;100924.13;;;26.22;42.18
46944;BME280;32678;43.852;25.952;2023-07-29T07:46:37;100907.41;;;26.28;40.72
46944;BME280;32678;43.852;25.952;2023-07-29T07:51:36;100912.88;;;26.64;39.90
46944;BME280;32678;43.852;25.952;2023-07-29T07:56:35;100912.59;;;26.67;39.10
46944;BME280;32678;43.852;25.952;2023-07-29T08:01:34;100908.38;;;26.92;38.89
46944;BME280;32678;43.852;25.952;2023-07-29T08:06:32;100901.69;;;27.13;37.98
46944;BME280;32678;43.852;25.952;2023-07-29T08:11:32;100899.16;;;27.30;36.82
46944;BME280;32678;43.852;25.952;2023-07-29T08:16:29;100894.69;;;27.56;36.53
46944;BME280;32678;43.852;25.952;2023-07-29T08:21:27;100890.94;;;27.49;35.84
46944;BME280;32678;43.852;25.952;2023-07-29T08:26:26;100876.66;;;27.56;35.81
46944;BME280;32678;43.852;25.952;2023-07-29T08:31:23;100899.13;;;27.91;35.83
46944;BME280;32678;43.852;25.952;2023-07-29T08:36:21;100888.59;;;28.06;33.96
46944;BME280;32678;43.852;25.952;2023-07-29T08:41:19;100888.13;;;28.10;34.03
46944;BME280;32678;43.852;25.952;2023-07-29T08:46:18;100887.09;;;28.29;34.51
46944;BME280;32678;43.852;25.952;2023-07-29T08:51:15;100874.50;;;28.46;33.41
46944;BME280;32678;43.852;25.952;2023-07-29T08:56:13;100852.09;;;28.45;33.96
46944;BME280;32678;43.852;25.952;2023-07-29T09:01:11;100866.38;;;28.71;33.09
46944;BME280;32678;43.852;25.952;2023-07-29T09:06:08;100861.00;;;28.88;33.33
46944;BME280;32678;43.852;25.952;2023-07-29T09:11:06;100857.66;;;29.10;33.23
46944;BME280;32678;43.852;25.952;2023-07-29T09:16:04;100859.34;;;29.11;33.38
46944;BME280;32678;43.852;25.952;2023-07-29T09:21:01;100862.69;;;29.13;33.05
46944;BME280;32678;43.852;25.952;2023-07-29T09:26:03;100861.59;;;29.32;33.66
46944;BME280;32678;43.852;25.952;2023-07-29T09:31:00;100858.22;;;29.46;32.61
46944;BME280;32678;43.852;25.952;2023-07-29T09:35:57;100853.97;;;29.27;32.58
46944;BME280;32678;43.852;25.952;2023-07-29T09:40:55;100853.13;;;29.35;32.92
46944;BME280;32678;43.852;25.952;2023-07-29T09:45:52;100848.56;;;29.43;32.89
46944;BME280;32678;43.852;25.952;2023-07-29T09:50:49;100837.06;;;29.57;32.64
46944;BME280;32678;43.852;25.952;2023-07-29T09:55:47;100842.81;;;29.70;31.94
46944;BME280;32678;43.852;25.952;2023-07-29T10:00:45;100833.97;;;29.93;31.16
46944;BME280;32678;43.852;25.952;2023-07-29T10:05:43;100827.69;;;30.08;30.21
46944;BME280;32678;43.852;25.952;2023-07-29T10:10:40;100832.50;;;30.29;29.22
46944;BME280;32678;43.852;25.952;2023-07-29T10:15:38;100824.38;;;30.29;29.05
46944;BME280;32678;43.852;25.952;2023-07-29T10:20:36;100823.22;;;30.24;29.03
46944;BME280;32678;43.852;25.952;2023-07-29T10:25:34;100817.94;;;30.30;28.63
46944;BME280;32678;43.852;25.952;2023-07-29T10:30:33;100815.00;;;30.40;29.29
46944;BME280;32678;43.852;25.952;2023-07-29T10:35:31;100816.16;;;30.53;28.82
46944;BME280;32678;43.852;25.952;2023-07-29T10:40:43;100807.81;;;30.63;29.14
46944;BME280;32678;43.852;25.952;2023-07-29T10:45:41;100805.97;;;30.64;28.21
46944;BME280;32678;43.852;25.952;2023-07-29T10:50:38;100797.16;;;30.84;28.66
46944;BME280;32678;43.852;25.952;2023-07-29T10:55:35;100795.75;;;30.74;27.74
46944;BME280;32678;43.852;25.952;2023-07-29T11:00:34;100794.47;;;30.84;27.70
46944;BME280;32678;43.852;25.952;2023-07-29T11:05:43;100787.22;;;30.99;28.26
46944;BME280;32678;43.852;25.952;2023-07-29T11:10:42;100779.66;;;31.03;28.78
46944;BME280;32678;43.852;25.952;2023-07-29T11:15:42;100776.19;;;31.09;29.70
46944;BME280;32678;43.852;25.952;2023-07-29T11:20:42;100779.47;;;31.19;29.76
46944;BME280;32678;43.852;25.952;2023-07-29T11:25:41;100775.22;;;31.39;28.59
46944;BME280;32678;43.852;25.952;2023-07-29T11:30:38;100768.78;;;31.40;29.11
46944;BME280;32678;43.852;25.952;2023-07-29T11:35:36;100761.69;;;31.39;29.40
46944;BME280;32678;43.852;25.952;2023-07-29T11:40:34;100754.69;;;31.45;29.00
46944;BME280;32678;43.852;25.952;2023-07-29T11:45:31;100756.06;;;31.41;29.26
46944;BME280;32678;43.852;25.952;2023-07-29T11:50:43;100747.00;;;31.49;29.29
46944;BME280;32678;43.852;25.952;2023-07-29T11:55:40;100737.88;;;31.64;28.77
46944;BME280;32678;43.852;25.952;2023-07-29T12:00:38;100726.31;;;31.70;29.26
46944;BME280;32678;43.852;25.952;2023-07-29T12:05:35;100725.75;;;31.75;28.96
46944;BME280;32678;43.852;25.952;2023-07-29T12:10:33;100722.34;;;31.73;28.63
46944;BME280;32678;43.852;25.952;2023-07-29T12:15:30;100727.97;;;31.86;28.27
46944;BME280;32678;43.852;25.952;2023-07-29T12:20:28;100712.91;;;31.83;28.41
46944;BME280;32678;43.852;25.952;2023-07-29T12:25:28;100720.75;;;31.93;28.79
46944;BME280;32678;43.852;25.952;2023-07-29T12:30:25;100713.63;;;31.92;28.95
46944;BME280;32678;43.852;25.952;2023-07-29T12:35:22;100715.88;;;32.03;28.74
46944;BME280;32678;43.852;25.952;2023-07-29T12:40:20;100715.47;;;32.06;28.61
46944;BME280;32678;43.852;25.952;2023-07-29T12:45:18;100709.78;;;32.16;29.01
46944;BME280;32678;43.852;25.952;2023-07-29T12:50:16;100712.91;;;32.34;27.68
46944;BME280;32678;43.852;25.952;2023-07-29T12:55:13;100710.38;;;32.33;27.64
46944;BME280;32678;43.852;25.952;2023-07-29T13:00:10;100703.50;;;32.30;27.39
46944;BME280;32678;43.852;25.952;2023-07-29T13:05:09;100697.31;;;32.21;27.77
46944;BME280;32678;43.852;25.952;2023-07-29T13:10:08;100707.84;;;32.31;28.57
46944;BME280;32678;43.852;25.952;2023-07-29T13:15:05;100707.75;;;32.39;27.38
46944;BME280;32678;43.852;25.952;2023-07-29T13:20:02;100715.00;;;32.53;27.45
46944;BME280;32678;43.852;25.952;2023-07-29T13:24:59;100693.72;;;32.57;26.97
46944;BME280;32678;43.852;25.952;2023-07-29T13:29:57;100703.44;;;32.66;26.72
46944;BME280;32678;43.852;25.952;2023-07-29T13:34:53;100706.28;;;32.79;26.61
46944;BME280;32678;43.852;25.952;2023-07-29T13:39:50;100686.34;;;32.93;25.74
46944;BME280;32678;43.852;25.952;2023-07-29T13:44:47;100687.06;;;32.81;27.24
46944;BME280;32678;43.852;25.952;2023-07-29T13:49:59;100675.00;;;32.90;26.92
46944;BME280;32678;43.852;25.952;2023-07-29T13:54:58;100675.47;;;32.93;26.46
46944;BME280;32678;43.852;25.952;2023-07-29T13:59:55;100670.44;;;32.90;26.55
46944;BME280;32678;43.852;25.952;2023-07-29T14:04:54;100666.88;;;32.90;26.90
46944;BME280;32678;43.852;25.952;2023-07-29T14:09:52;100664.63;;;32.93;30.61
46944;BME280;32678;43.852;25.952;2023-07-29T14:14:49;100652.91;;;32.93;29.80
46944;BME280;32678;43.852;25.952;2023-07-29T14:19:49;100666.97;;;32.75;31.55
46944;BME280;32678;43.852;25.952;2023-07-29T14:24:48;100662.19;;;32.77;30.63
46944;BME280;32678;43.852;25.952;2023-07-29T14:29:49;100671.28;;;32.70;30.91
46944;BME280;32678;43.852;25.952;2023-07-29T14:34:46;100673.19;;;32.69;30.59
46944;BME280;32678;43.852;25.952;2023-07-29T14:39:43;100668.59;;;32.70;28.96
46944;BME280;32678;43.852;25.952;2023-07-29T14:44:40;100667.28;;;32.87;25.39
46944;BME280;32678;43.852;25.952;2023-07-29T14:49:37;100658.69;;;32.83;25.00
46944;BME280;32678;43.852;25.952;2023-07-29T14:54:34;100655.41;;;32.94;25.08
46944;BME280;32678;43.852;25.952;2023-07-29T14:59:31;100652.25;;;32.91;29.09
46944;BME280;32678;43.852;25.952;2023-07-29T15:04:28;100651.66;;;32.67;25.67
46944;BME280;32678;43.852;25.952;2023-07-29T15:09:28;100649.88;;;32.81;26.15
46944;BME280;32678;43.852;25.952;2023-07-29T15:14:24;100647.97;;;32.75;26.17
46944;BME280;32678;43.852;25.952;2023-07-29T15:19:21;100654.03;;;32.77;28.11
46944;BME280;32678;43.852;25.952;2023-07-29T15:24:18;100655.28;;;32.53;31.22
46944;BME280;32678;43.852;25.952;2023-07-29T15:29:15;100642.22;;;32.42;30.82
46944;BME280;32678;43.852;25.952;2023-07-29T15:34:13;100643.00;;;32.36;31.75
46944;BME280;32678;43.852;25.952;2023-07-29T15:39:09;100645.00;;;32.28;32.63
46944;BME280;32678;43.852;25.952;2023-07-29T15:44:06;100644.06;;;32.35;32.55
46944;BME280;32678;43.852;25.952;2023-07-29T15:49:05;100648.25;;;32.38;31.37
46944;BME280;32678;43.852;25.952;2023-07-29T15:54:02;100649.53;;;32.42;35.32
46944;BME280;32678;43.852;25.952;2023-07-29T15:58:59;100651.09;;;32.30;35.34
46944;BME280;32678;43.852;25.952;2023-07-29T16:03:56;100658.56;;;32.28;33.42
46944;BME280;32678;43.852;25.952;2023-07-29T16:08:53;100647.31;;;32.31;33.43
46944;BME280;32678;43.852;25.952;2023-07-29T16:13:51;100649.25;;;32.37;32.05
46944;BME280;32678;43.852;25.952;2023-07-29T16:18:48;100650.63;;;32.47;33.80
46944;BME280;32678;43.852;25.952;2023-07-29T16:23:45;100643.06;;;32.21;32.93
46944;BME280;32678;43.852;25.952;2023-07-29T16:28:45;100648.88;;;32.18;31.66
46944;BME280;32678;43.852;25.952;2023-07-29T16:33:45;100642.28;;;32.28;32.50
46944;BME280;32678;43.852;25.952;2023-07-29T16:38:42;100637.91;;;32.27;32.76
46944;BME280;32678;43.852;25.952;2023-07-29T16:43:42;100653.22;;;32.34;32.28
46944;BME280;32678;43.852;25.952;2023-07-29T16:48:39;100648.38;;;32.30;38.49
46944;BME280;32678;43.852;25.952;2023-07-29T16:53:36;100655.53;;;32.16;38.21
46944;BME280;32678;43.852;25.952;2023-07-29T16:58:33;100656.28;;;32.10;37.09
46944;BME280;32678;43.852;25.952;2023-07-29T17:03:31;100660.97;;;32.01;34.28
46944;BME280;32678;43.852;25.952;2023-07-29T17:08:30;100657.47;;;31.86;34.31
46944;BME280;32678;43.852;25.952;2023-07-29T17:13:27;100662.50;;;31.89;33.09
46944;BME280;32678;43.852;25.952;2023-07-29T17:18:27;100643.75;;;31.73;32.93
46944;BME280;32678;43.852;25.952;2023-07-29T17:23:25;100669.81;;;31.89;32.76
46944;BME280;32678;43.852;25.952;2023-07-29T17:28:22;100670.81;;;31.88;31.90
46944;BME280;32678;43.852;25.952;2023-07-29T17:33:19;100664.28;;;31.82;31.91
46944;BME280;32678;43.852;25.952;2023-07-29T17:38:16;100668.63;;;31.76;32.12
46944;BME280;32678;43.852;25.952;2023-07-29T17:43:14;100672.94;;;31.71;32.21
46944;BME280;32678;43.852;25.952;2023-07-29T17:48:11;100663.38;;;31.75;32.19
46944;BME280;32678;43.852;25.952;2023-07-29T17:53:08;100674.84;;;31.92;37.89
46944;BME280;32678;43.852;25.952;2023-07-29T17:58:06;100681.03;;;31.86;33.57
46944;BME280;32678;43.852;25.952;2023-07-29T18:03:04;100685.03;;;31.90;32.64
46944;BME280;32678;43.852;25.952;2023-07-29T18:08:03;100690.75;;;31.95;32.15
46944;BME280;32678;43.852;25.952;2023-07-29T18:13:00;100691.19;;;31.98;31.18
46944;BME280;32678;43.852;25.952;2023-07-29T18:18:04;100706.69;;;32.04;31.02
46944;BME280;32678;43.852;25.952;2023-07-29T18:23:04;100701.28;;;32.04;30.64
46944;BME280;32678;43.852;25.952;2023-07-29T18:28:01;100715.19;;;32.01;30.49
46944;BME280;32678;43.852;25.952;2023-07-29T18:33:01;100720.63;;;32.01;30.69
46944;BME280;32678;43.852;25.952;2023-07-29T18:38:00;100715.59;;;31.98;30.92
46944;BME280;32678;43.852;25.952;2023-07-29T18:42:57;100717.28;;;31.99;30.46
46944;BME280;32678;43.852;25.952;2023-07-29T18:47:54;100712.63;;;31.93;30.36
46944;BME280;32678;43.852;25.952;2023-07-29T18:52:51;100722.72;;;31.85;30.43
46944;BME280;32678;43.852;25.952;2023-07-29T18:57:52;100723.47;;;31.78;30.19
46944;BME280;32678;43.852;25.952;2023-07-29T19:02:50;100719.66;;;31.73;30.88
46944;BME280;32678;43.852;25.952;2023-07-29T19:07:49;100716.59;;;31.76;30.50
46944;BME280;32678;43.852;25.952;2023-07-29T19:12:47;100719.16;;;31.55;30.04
46944;BME280;32678;43.852;25.952;2023-07-29T19:17:50;100713.56;;;31.42;30.67
46944;BME280;32678;43.852;25.952;2023-07-29T19:22:47;100720.16;;;31.10;30.98
46944;BME280;32678;43.852;25.952;2023-07-29T19:27:44;100722.50;;;30.90;31.36
46944;BME280;32678;43.852;25.952;2023-07-29T19:32:41;100723.00;;;30.71;31.61
46944;BME280;32678;43.852;25.952;2023-07-29T19:37:40;100729.69;;;30.83;31.43
46944;BME280;32678;43.852;25.952;2023-07-29T19:42:37;100728.72;;;30.76;31.36
46944;BME280;32678;43.852;25.952;2023-07-29T19:47:34;100731.69;;;30.66;31.36
46944;BME280;32678;43.852;25.952;2023-07-29T19:52:33;100722.25;;;30.62;31.98
46944;BME280;32678;43.852;25.952;2023-07-29T19:57:30;100724.72;;;30.49;31.41
46944;BME280;32678;43.852;25.952;2023-07-29T20:02:27;100720.38;;;30.32;31.53
46944;BME280;32678;43.852;25.952;2023-07-29T20:07:27;100727.41;;;30.49;31.91
46944;BME280;32678;43.852;25.952;2023-07-29T20:12:24;100724.19;;;30.53;31.36
46944;BME280;32678;43.852;25.952;2023-07-29T20:17:22;100730.38;;;30.31;31.74
46944;BME280;32678;43.852;25.952;2023-07-29T20:22:20;100715.59;;;30.19;32.21
46944;BME280;32678;43.852;25.952;2023-07-29T20:27:17;100716.81;;;30.08;32.18
46944;BME280;32678;43.852;25.952;2023-07-29T20:32:16;100718.75;;;29.92;33.34
46944;BME280;32678;43.852;25.952;2023-07-29T20:37:14;100707.03;;;30.07;34.57
46944;BME280;32678;43.852;25.952;2023-07-29T20:42:10;100725.88;;;30.24;35.30
46944;BME280;32678;43.852;25.952;2023-07-29T20:47:07;100724.44;;;29.66;37.14
46944;BME280;32678;43.852;25.952;2023-07-29T20:52:06;100728.88;;;29.18;38.16
46944;BME280;32678;43.852;25.952;2023-07-29T20:57:04;100734.78;;;29.46;37.98
46944;BME280;32678;43.852;25.952;2023-07-29T21:02:03;100743.63;;;29.79;37.37
46944;BME280;32678;43.852;25.952;2023-07-29T21:07:00;100733.78;;;29.86;37.13
46944;BME280;32678;43.852;25.952;2023-07-29T21:11:57;100742.19;;;29.60;37.70
46944;BME280;32678;43.852;25.952;2023-07-29T21:16:55;100749.88;;;29.80;37.14
46944;BME280;32678;43.852;25.952;2023-07-29T21:21:51;100750.19;;;29.77;37.20
46944;BME280;32678;43.852;25.952;2023-07-29T21:26:48;100756.78;;;29.03;38.94
46944;BME280;32678;43.852;25.952;2023-07-29T21:31:45;100750.50;;;28.94;39.32
46944;BME280;32678;43.852;25.952;2023-07-29T21:36:43;100752.03;;;29.05;39.15
46944;BME280;32678;43.852;25.952;2023-07-29T21:41:42;100758.13;;;28.82;39.33
46944;BME280;32678;43.852;25.952;2023-07-29T21:46:38;100764.97;;;28.61;39.50
46944;BME280;32678;43.852;25.952;2023-07-29T21:51:35;100752.47;;;28.60;40.02
46944;BME280;32678;43.852;25.952;2023-07-29T21:56:33;100754.97;;;28.37;40.39
46944;BME280;32678;43.852;25.952;2023-07-29T22:01:30;100748.03;;;28.18;40.65
46944;BME280;32678;43.852;25.952;2023-07-29T22:06:27;100746.41;;;28.50;39.90
46944;BME280;32678;43.852;25.952;2023-07-29T22:11:26;100752.03;;;28.72;39.08
46944;BME280;32678;43.852;25.952;2023-07-29T22:16:25;100747.94;;;28.44;37.88
46944;BME280;32678;43.852;25.952;2023-07-29T22:21:22;100744.34;;;28.19;37.98
46944;BME280;32678;43.852;25.952;2023-07-29T22:26:19;100742.16;;;28.23;38.58
46944;BME280;32678;43.852;25.952;2023-07-29T22:31:16;100740.44;;;28.22;37.57
46944;BME280;32678;43.852;25.952;2023-07-29T22:36:13;100728.50;;;28.32;36.90
46944;BME280;32678;43.852;25.952;2023-07-29T22:41:11;100730.81;;;28.11;38.08
46944;BME280;32678;43.852;25.952;2023-07-29T22:46:07;100724.97;;;28.24;38.90
46944;BME280;32678;43.852;25.952;2023-07-29T22:51:04;100725.81;;;28.24;40.77
46944;BME280;32678;43.852;25.952;2023-07-29T22:56:04;100734.44;;;28.52;41.24
46944;BME280;32678;43.852;25.952;2023-07-29T23:01:01;100734.44;;;27.94;42.31
46944;BME280;32678;43.852;25.952;2023-07-29T23:05:57;100739.38;;;27.65;41.58
46944;BME280;32678;43.852;25.952;2023-07-29T23:10:54;100743.53;;;27.59;40.42
46944;BME280;32678;43.852;25.952;2023-07-29T23:15:51;100745.44;;;27.41;39.83
46944;BME280;32678;43.852;25.952;2023-07-29T23:20:50;100743.16;;;26.67;40.38
46944;BME280;32678;43.852;25.952;2023-07-29T23:25:48;100741.94;;;26.16;41.47
46944;BME280;32678;43.852;25.952;2023-07-29T23:30:46;100720.00;;;25.94;42.01
46944;BME280;32678;43.852;25.952;2023-07-29T23:35:44;100739.16;;;26.08;42.03
46944;BME280;32678;43.852;25.952;2023-07-29T23:40:40;100727.91;;;25.68;42.88
46944;BME280;32678;43.852;25.952;2023-07-29T23:45:37;100707.84;;;25.62;42.78
46944;BME280;32678;43.852;25.952;2023-07-29T23:50:34;100725.47;;;25.74;42.43
46944;BME280;32678;43.852;25.952;2023-07-29T23:55:31;100728.31;;;25.73;42.34
